Time;durP1;ratioP1;P1;durP2;ratioP2;P2;SDS_P1;SDS_P2;PMS_P1;PMS_P2;Temp;Humidity;BMP_temperature;BMP_pressure;BME280_temperature;BME280_humidity;BME280_pressure;Samples;Min_cycle;Max_cycle;Signal;HPM_P1;HPM_P2
2021/01/31 00:01:04;;;;;;;7.40;4.38;;;;;;;2.74;42.32;99900.78;5066808;28;20053;-69
2021/01/31 00:03:33;;;;;;;7.32;4.47;;;;;;;2.75;42.07;99905.22;5055590;28;20048;-70
2021/01/31 00:06:03;;;;;;;7.45;4.68;;;;;;;2.73;42.12;99899.06;5069749;28;20055;-69
2021/01/31 00:08:34;;;;;;;8.27;4.78;;;;;;;2.72;42.28;99896.47;5053901;28;20127;-70
2021/01/31 00:11:26;;;;;;;6.95;4.15;;;;;;;2.73;42.33;99893.66;5054677;28;20091;-70
2021/01/31 00:13:54;;;;;;;7.77;4.30;;;;;;;2.72;42.42;99900.03;5053340;28;20488;-70
2021/01/31 00:16:21;;;;;;;5.88;3.58;;;;;;;2.73;42.34;99901.75;5053711;28;20037;-70
2021/01/31 00:18:49;;;;;;;5.60;3.53;;;;;;;2.74;42.46;99903.50;5053598;28;20060;-71
2021/01/31 00:21:16;;;;;;;7.70;4.10;;;;;;;2.75;42.59;99899.81;5055817;28;20132;-71
2021/01/31 00:23:44;;;;;;;6.25;4.00;;;;;;;2.75;42.55;99902.53;5053719;28;20098;-71
2021/01/31 00:26:18;;;;;;;7.95;4.15;;;;;;;2.75;42.53;99907.06;5053327;28;20099;-70
2021/01/31 00:28:49;;;;;;;7.85;4.50;;;;;;;2.76;42.50;99903.38;5054287;28;20037;-70
2021/01/31 00:31:38;;;;;;;6.10;3.80;;;;;;;2.74;42.34;99908.03;5056222;28;20049;-69
2021/01/31 00:34:07;;;;;;;6.80;4.28;;;;;;;2.75;42.26;99905.22;5053825;28;20094;-70
2021/01/31 00:36:34;;;;;;;7.60;4.47;;;;;;;2.74;42.48;99906.19;5058135;28;20044;-71
2021/01/31 00:39:02;;;;;;;6.50;3.90;;;;;;;2.74;42.46;99911.59;5053702;28;20045;-70
2021/01/31 00:41:29;;;;;;;7.00;4.50;;;;;;;2.74;42.45;99913.44;5035050;28;20068;-71
2021/01/31 00:44:03;;;;;;;8.10;4.88;;;;;;;2.72;42.30;99916.22;5056706;28;20087;-70
2021/01/31 00:46:33;;;;;;;7.15;4.55;;;;;;;2.74;42.42;99922.41;5053628;28;20043;-70
2021/01/31 00:49:00;;;;;;;6.80;4.55;;;;;;;2.70;42.41;99915.50;5054937;28;20048;-70
2021/01/31 00:51:30;;;;;;;8.05;5.00;;;;;;;2.70;42.32;99920.88;5054911;28;20060;-70
2021/01/31 00:53:58;;;;;;;9.07;5.28;;;;;;;2.68;42.12;99935.47;5058451;28;20067;-70
2021/01/31 00:56:25;;;;;;;8.02;5.00;;;;;;;2.67;42.39;99933.72;5051389;28;20108;-70
2021/01/31 00:58:52;;;;;;;7.75;4.88;;;;;;;2.64;42.47;99928.53;5058158;28;20502;-70
2021/01/31 01:01:20;;;;;;;9.38;5.07;;;;;;;2.62;42.39;99925.09;5055143;28;20160;-70
2021/01/31 01:03:49;;;;;;;7.80;4.40;;;;;;;2.60;42.16;99922.47;5058075;28;20464;-70
2021/01/31 01:06:40;;;;;;;6.43;4.03;;;;;;;2.58;42.63;99934.34;5058548;28;20060;-70
2021/01/31 01:09:07;;;;;;;6.85;4.32;;;;;;;2.55;42.45;99925.47;5059791;28;20049;-70
2021/01/31 01:11:34;;;;;;;6.82;4.63;;;;;;;2.53;42.66;99927.44;5053446;28;20121;-70
2021/01/31 01:14:01;;;;;;;7.88;4.45;;;;;;;2.52;42.44;99932.94;5060181;28;20032;-70
2021/01/31 01:16:28;;;;;;;7.60;4.60;;;;;;;2.49;42.38;99934.00;5051300;28;20112;-71
2021/01/31 01:18:56;;;;;;;8.15;4.50;;;;;;;2.49;42.50;99936.69;5057427;28;20083;-70
2021/01/31 01:21:24;;;;;;;6.05;4.22;;;;;;;2.46;42.16;99936.94;5058436;28;20171;-70
2021/01/31 01:23:51;;;;;;;7.07;4.25;;;;;;;2.45;42.26;99927.09;5051286;28;20044;-71
2021/01/31 01:26:19;;;;;;;5.68;3.83;;;;;;;2.44;42.33;99935.28;5052158;28;20112;-70
2021/01/31 01:28:46;;;;;;;7.85;4.55;;;;;;;2.41;42.53;99944.44;5057181;28;20045;-71
2021/01/31 01:31:13;;;;;;;7.15;4.43;;;;;;;2.41;42.36;99948.97;5051368;28;21851;-70
2021/01/31 01:33:40;;;;;;;7.85;4.40;;;;;;;2.39;42.41;99950.91;5051047;28;20044;-70
2021/01/31 01:36:08;;;;;;;7.22;4.75;;;;;;;2.37;42.66;99953.75;5060352;28;20032;-71
2021/01/31 01:38:35;;;;;;;7.20;4.57;;;;;;;2.35;42.40;99952.97;5055938;28;20376;-70
2021/01/31 01:41:04;;;;;;;6.35;4.10;;;;;;;2.36;42.41;99940.34;5052282;28;20075;-70
2021/01/31 01:43:31;;;;;;;6.28;4.07;;;;;;;2.33;42.79;99943.22;5052619;28;20514;-70
2021/01/31 01:46:23;;;;;;;6.78;4.07;;;;;;;2.34;42.28;99942.28;5063267;28;20048;-70
2021/01/31 01:48:53;;;;;;;6.93;4.35;;;;;;;2.29;42.77;99942.59;5057006;28;20044;-71
2021/01/31 01:51:30;;;;;;;7.10;3.85;;;;;;;2.31;42.11;99937.94;5058221;28;20036;-70
2021/01/31 01:53:59;;;;;;;7.00;4.18;;;;;;;2.28;42.51;99940.84;5055399;28;20128;-71
2021/01/31 01:56:35;;;;;;;6.78;3.95;;;;;;;2.28;42.47;99932.75;5052956;28;20048;-70
2021/01/31 01:59:03;;;;;;;6.95;4.03;;;;;;;2.27;42.71;99930.16;5057176;28;20507;-70
2021/01/31 02:01:33;;;;;;;7.50;4.13;;;;;;;2.27;42.64;99931.03;5057822;28;20045;-70
2021/01/31 02:04:01;;;;;;;6.43;3.83;;;;;;;2.29;42.86;99934.50;5053687;28;20041;-70
2021/01/31 02:06:30;;;;;;;5.68;4.00;;;;;;;2.29;42.84;99925.53;5035927;28;20388;-70
2021/01/31 02:08:59;;;;;;;6.47;3.80;;;;;;;2.29;42.58;99920.13;5049383;28;20029;-70
2021/01/31 02:11:28;;;;;;;6.10;3.72;;;;;;;2.32;43.03;99933.41;5049640;28;20059;-70
2021/01/31 02:13:58;;;;;;;6.18;3.42;;;;;;;2.33;42.65;99932.44;5052828;28;20511;-70
2021/01/31 02:16:35;;;;;;;6.35;3.63;;;;;;;2.34;42.57;99931.47;5057143;28;20072;-70
2021/01/31 02:19:25;;;;;;;7.22;3.90;;;;;;;2.35;42.60;99942.16;5054395;28;20487;-70
2021/01/31 02:22:18;;;;;;;7.07;4.40;;;;;;;2.36;42.29;99943.91;5055866;28;20102;-70
2021/01/31 02:25:14;;;;;;;7.03;4.07;;;;;;;2.32;42.20;99939.66;5050065;28;20053;-70
2021/01/31 02:28:23;;;;;;;5.80;3.22;;;;;;;2.33;42.54;99940.53;5030446;28;20493;-70
2021/01/31 02:31:30;;;;;;;6.65;3.83;;;;;;;2.31;42.51;99943.31;5048162;28;20135;-70
2021/01/31 02:34:05;;;;;;;5.85;3.47;;;;;;;2.33;42.34;99945.94;5019681;28;20594;-70
2021/01/31 02:36:42;;;;;;;6.70;4.07;;;;;;;2.34;42.19;99956.63;5059702;28;20083;-70
2021/01/31 02:39:17;;;;;;;8.07;4.32;;;;;;;2.33;42.63;99954.03;5057292;28;20051;-70
2021/01/31 02:41:59;;;;;;;6.82;4.35;;;;;;;2.33;42.35;99948.63;5056392;28;20045;-70
2021/01/31 02:44:29;;;;;;;6.65;4.38;;;;;;;2.29;42.37;99945.28;5068540;28;20497;-70
2021/01/31 02:47:00;;;;;;;6.78;4.13;;;;;;;2.28;42.16;99945.38;5045627;28;20041;-70
2021/01/31 02:49:32;;;;;;;7.65;4.07;;;;;;;2.27;42.40;99949.03;5050770;28;20123;-71
2021/01/31 02:52:06;;;;;;;7.03;3.95;;;;;;;2.24;42.38;99955.50;5061576;28;20540;-70
2021/01/31 02:54:40;;;;;;;7.00;3.90;;;;;;;2.22;42.14;99962.81;5042841;28;20155;-70
2021/01/31 02:57:11;;;;;;;4.90;2.90;;;;;;;2.14;42.63;99955.25;5050305;28;20132;-70
2021/01/31 02:59:44;;;;;;;6.13;3.63;;;;;;;2.17;42.37;99954.19;5054517;28;20045;-70
2021/01/31 03:02:16;;;;;;;6.97;4.00;;;;;;;2.17;42.55;99955.03;5059655;28;20127;-70
2021/01/31 03:04:52;;;;;;;6.40;3.78;;;;;;;2.17;42.59;99957.75;5049194;28;20116;-70
2021/01/31 03:07:25;;;;;;;6.38;3.88;;;;;;;2.14;42.72;99957.06;5060888;28;20064;-70
2021/01/31 03:09:59;;;;;;;5.93;3.67;;;;;;;2.14;42.54;99955.25;5051697;28;20064;-70
2021/01/31 03:12:33;;;;;;;6.65;3.67;;;;;;;2.14;42.33;99954.38;5059812;28;20044;-70
2021/01/31 03:15:06;;;;;;;6.70;3.78;;;;;;;2.14;42.64;99952.53;5052237;28;20056;-70
2021/01/31 03:17:40;;;;;;;6.47;3.72;;;;;;;2.14;42.46;99948.97;5055013;28;20051;-70
2021/01/31 03:20:12;;;;;;;7.53;4.18;;;;;;;2.12;42.25;99956.31;5060935;28;20484;-70
2021/01/31 03:22:46;;;;;;;6.25;3.70;;;;;;;2.11;42.57;99952.75;5065547;28;20068;-70
2021/01/31 03:25:19;;;;;;;6.70;3.92;;;;;;;2.11;42.55;99947.38;5049042;28;20480;-70
2021/01/31 03:27:47;;;;;;;6.80;3.92;;;;;;;2.09;42.41;99951.13;5050440;28;20488;-70
2021/01/31 03:30:16;;;;;;;7.07;4.20;;;;;;;2.11;42.55;99944.66;5051111;28;20096;-70
2021/01/31 03:32:48;;;;;;;6.53;3.90;;;;;;;2.11;42.69;99944.66;5065631;28;20037;-70
2021/01/31 03:35:20;;;;;;;5.80;3.67;;;;;;;2.12;42.32;99946.41;5050918;28;20045;-70
2021/01/31 03:37:53;;;;;;;6.63;3.85;;;;;;;2.13;42.34;99945.44;5051206;28;20045;-70
2021/01/31 03:40:23;;;;;;;5.82;3.67;;;;;;;2.11;42.59;99946.50;5051699;28;20119;-70
2021/01/31 03:42:54;;;;;;;6.20;3.47;;;;;;;2.11;42.78;99943.81;5041070;28;20087;-70
2021/01/31 03:45:28;;;;;;;6.95;4.13;;;;;;;2.13;42.49;99940.03;5031764;28;20053;-70
2021/01/31 03:48:01;;;;;;;6.40;3.90;;;;;;;2.12;42.44;99941.00;5038160;28;20111;-70
2021/01/31 03:50:32;;;;;;;6.63;4.00;;;;;;;2.10;42.23;99942.94;5055710;28;20049;-70
2021/01/31 03:53:01;;;;;;;6.55;3.78;;;;;;;2.08;42.43;99950.25;5043942;28;20041;-70
2021/01/31 03:55:41;;;;;;;5.93;3.55;;;;;;;2.09;42.17;99949.28;5059407;28;20078;-70
2021/01/31 03:58:17;;;;;;;6.90;4.38;;;;;;;2.07;42.45;99944.94;5052443;28;20041;-70
2021/01/31 04:01:00;;;;;;;6.15;3.72;;;;;;;2.06;42.31;99951.31;5060732;28;20047;-70
2021/01/31 04:03:31;;;;;;;6.50;3.92;;;;;;;2.03;42.25;99948.84;5036890;28;20143;-70
2021/01/31 04:06:05;;;;;;;5.63;3.17;;;;;;;2.03;42.38;99951.53;5060362;28;20049;-70
2021/01/31 04:08:36;;;;;;;5.97;4.05;;;;;;;2.01;42.64;99958.84;5054110;28;20033;-70
2021/01/31 04:11:06;;;;;;;6.40;3.75;;;;;;;1.99;42.51;99967.03;5059285;28;20392;-70
2021/01/31 04:13:53;;;;;;;7.00;3.70;;;;;;;1.97;42.76;99968.13;5052051;28;20439;-70
2021/01/31 04:16:47;;;;;;;6.80;3.75;;;;;;;1.97;42.21;99960.88;5057217;28;20484;-70
2021/01/31 04:19:34;;;;;;;7.00;3.95;;;;;;;1.94;42.80;99962.91;5050223;28;20052;-70
2021/01/31 04:22:22;;;;;;;6.93;3.78;;;;;;;1.93;42.32;99955.78;5055481;28;20095;-70
2021/01/31 04:25:10;;;;;;;6.60;3.70;;;;;;;1.91;42.72;99963.97;5053658;28;20052;-70
2021/01/31 04:27:57;;;;;;;6.22;3.92;;;;;;;1.89;42.81;99963.19;5050027;28;20053;-70
2021/01/31 04:30:46;;;;;;;6.82;3.65;;;;;;;1.88;42.57;99961.50;5057320;28;20048;-70
2021/01/31 04:33:33;;;;;;;6.63;3.78;;;;;;;1.87;42.45;99962.44;5056528;28;20443;-70
2021/01/31 04:36:35;;;;;;;6.35;3.80;;;;;;;1.88;42.25;99958.78;5056532;28;20045;-70
2021/01/31 04:39:23;;;;;;;5.95;3.13;;;;;;;1.84;42.69;99959.06;5052500;28;20094;-71
2021/01/31 04:42:11;;;;;;;5.80;3.38;;;;;;;1.82;42.76;99961.00;5052554;28;20080;-70
2021/01/31 04:44:58;;;;;;;6.30;3.50;;;;;;;1.82;42.82;99963.69;5055208;28;20055;-70
2021/01/31 04:47:58;;;;;;;6.22;3.67;;;;;;;1.83;42.58;99971.69;5057166;28;20040;-70
2021/01/31 04:50:59;;;;;;;6.18;3.38;;;;;;;1.82;42.47;99982.56;5059662;28;20800;-70
2021/01/31 04:54:08;;;;;;;6.00;3.58;;;;;;;1.81;42.26;99979.00;5059636;28;20041;-70
2021/01/31 04:57:06;;;;;;;5.32;3.35;;;;;;;1.80;42.61;99980.00;5051971;28;20098;-70
2021/01/31 04:59:53;;;;;;;5.80;3.45;;;;;;;1.77;42.82;99983.75;5054715;28;20431;-70
2021/01/31 05:02:45;;;;;;;6.93;3.63;;;;;;;1.79;42.71;99989.91;5042982;28;20049;-70
2021/01/31 05:05:36;;;;;;;5.60;3.33;;;;;;;1.79;42.72;99997.13;5058857;28;20056;-70
2021/01/31 05:08:26;;;;;;;5.72;3.22;;;;;;;1.78;42.55;99990.00;5045644;28;20045;-70
2021/01/31 05:11:23;;;;;;;6.57;3.50;;;;;;;1.79;42.19;99991.75;5063357;28;20073;-70
2021/01/31 05:14:18;;;;;;;5.97;3.17;;;;;;;1.77;42.47;99994.53;5050067;28;20507;-70
2021/01/31 05:17:06;;;;;;;6.82;3.88;;;;;;;1.75;42.66;99990.19;5058702;28;20080;-70
2021/01/31 05:19:44;;;;;;;5.68;3.53;;;;;;;1.75;42.51;99984.78;5061614;28;20037;-70
2021/01/31 05:22:13;;;;;;;6.10;3.65;;;;;;;1.76;42.59;99983.84;5050763;28;20051;-70
2021/01/31 05:24:53;;;;;;;6.15;3.58;;;;;;;1.74;42.44;99983.06;5061442;28;20131;-70
2021/01/31 05:27:28;;;;;;;7.32;4.00;;;;;;;1.73;42.54;99987.59;5056008;28;20049;-70
2021/01/31 05:29:57;;;;;;;6.57;3.75;;;;;;;1.70;42.41;99990.50;5045801;28;20037;-70
2021/01/31 05:32:25;;;;;;;7.25;3.55;;;;;;;1.69;42.41;100002.25;5055556;28;20044;-70
2021/01/31 05:34:57;;;;;;;7.32;3.75;;;;;;;1.70;42.45;99992.31;5050586;28;20047;-70
2021/01/31 05:37:26;;;;;;;5.63;3.65;;;;;;;1.68;42.45;99995.13;5060039;28;20055;-70
2021/01/31 05:40:00;;;;;;;6.47;3.65;;;;;;;1.69;42.38;99993.28;5060534;28;20044;-70
2021/01/31 05:42:32;;;;;;;6.55;3.67;;;;;;;1.66;42.59;99988.06;5051789;28;20492;-70
2021/01/31 05:45:05;;;;;;;6.20;4.10;;;;;;;1.65;42.72;99991.72;5062252;28;20028;-70
2021/01/31 05:47:38;;;;;;;7.03;3.88;;;;;;;1.63;42.42;99990.97;5054653;28;20487;-70
2021/01/31 05:50:22;;;;;;;6.38;4.07;;;;;;;1.65;42.32;99997.13;5052271;28;20060;-70
2021/01/31 05:53:27;;;;;;;6.68;3.63;;;;;;;1.58;42.34;99993.94;5050116;28;20061;-70
2021/01/31 05:56:13;;;;;;;6.22;3.70;;;;;;;1.56;42.10;100001.25;5056912;28;20048;-70
2021/01/31 05:58:42;;;;;;;8.55;4.40;;;;;;;1.52;42.24;100002.44;5052330;28;20037;-70
2021/01/31 06:01:13;;;;;;;6.78;3.80;;;;;;;1.53;42.60;100006.00;5061578;28;20041;-70
2021/01/31 06:03:44;;;;;;;6.88;3.85;;;;;;;1.51;42.71;100002.53;5055466;28;20033;-70
2021/01/31 06:06:22;;;;;;;6.38;3.80;;;;;;;1.52;42.46;100002.44;5067764;28;20048;-69
2021/01/31 06:08:55;;;;;;;7.47;4.15;;;;;;;1.47;42.49;100001.00;5047659;28;20036;-69
2021/01/31 06:11:25;;;;;;;6.88;3.80;;;;;;;1.46;42.71;100004.66;5061629;28;20048;-70
2021/01/31 06:14:04;;;;;;;6.38;3.70;;;;;;;1.44;42.26;99999.34;5057631;28;20095;-69
2021/01/31 06:16:34;;;;;;;6.28;3.83;;;;;;;1.40;42.66;99998.66;5065978;28;20037;-70
2021/01/31 06:19:08;;;;;;;7.75;4.20;;;;;;;1.41;42.37;99996.84;5053265;28;20112;-70
2021/01/31 06:21:41;;;;;;;5.55;3.60;;;;;;;1.39;42.31;99993.41;5052379;28;20048;-70
2021/01/31 06:24:23;;;;;;;7.88;4.05;;;;;;;1.37;42.26;99993.47;5039758;28;20055;-69
2021/01/31 06:27:14;;;;;;;6.80;3.70;;;;;;;1.35;42.63;99999.91;5049694;28;20064;-70
2021/01/31 06:30:14;;;;;;;6.68;3.55;;;;;;;1.33;42.42;100010.78;5049227;28;20072;-69
2021/01/31 06:32:43;;;;;;;6.45;3.67;;;;;;;1.32;42.78;100005.47;5051458;28;20433;-69
2021/01/31 06:35:15;;;;;;;6.28;3.65;;;;;;;1.31;42.65;100007.31;5062120;28;20128;-69
2021/01/31 06:38:07;;;;;;;6.25;3.78;;;;;;;1.32;42.71;100005.47;5062304;28;20036;-70
2021/01/31 06:40:47;;;;;;;6.38;3.60;;;;;;;1.31;42.72;100009.16;5054371;28;20041;-70
2021/01/31 06:43:47;;;;;;;6.72;3.45;;;;;;;1.29;42.49;100014.66;5059692;28;20464;-70
2021/01/31 06:46:43;;;;;;;7.18;3.50;;;;;;;1.28;42.40;100029.06;5061548;28;20052;-70
2021/01/31 06:49:24;;;;;;;6.45;3.58;;;;;;;1.28;42.65;100034.47;5052824;28;20135;-70
2021/01/31 06:52:12;;;;;;;5.50;3.22;;;;;;;1.28;42.29;100039.84;5049131;28;20053;-70
2021/01/31 06:55:03;;;;;;;6.38;3.65;;;;;;;1.27;42.33;100038.13;5034617;28;20574;-70
2021/01/31 06:58:11;;;;;;;6.20;3.72;;;;;;;1.24;42.31;100040.13;5050592;28;20424;-69
2021/01/31 07:01:20;;;;;;;7.13;4.50;;;;;;;1.23;42.34;100039.25;5048958;28;20396;-70
2021/01/31 07:04:38;;;;;;;5.68;3.42;;;;;;;1.19;42.74;100048.50;5044134;28;20494;-70
2021/01/31 07:07:58;;;;;;;8.48;3.95;;;;;;;1.20;42.51;100035.88;5048605;28;20488;-70
2021/01/31 07:10:56;;;;;;;7.82;4.03;;;;;;;1.20;42.28;100027.81;5047093;28;20036;-70
2021/01/31 07:13:38;;;;;;;7.45;3.97;;;;;;;1.16;42.29;100015.44;5052576;28;20060;-70
2021/01/31 07:16:20;;;;;;;7.45;4.28;;;;;;;1.14;42.21;100017.38;5045343;28;20071;-70
2021/01/31 07:18:55;;;;;;;8.60;4.40;;;;;;;1.12;42.44;100025.53;5051230;28;20056;-70
2021/01/31 07:21:29;;;;;;;7.55;3.97;;;;;;;1.09;42.27;100019.47;5050883;28;20040;-70
2021/01/31 07:24:22;;;;;;;7.20;4.05;;;;;;;1.03;42.69;100018.03;5065657;28;20053;-69
2021/01/31 07:26:54;;;;;;;6.78;4.05;;;;;;;1.03;42.70;100020.72;5053241;28;20068;-70
2021/01/31 07:29:44;;;;;;;7.80;4.35;;;;;;;0.99;42.49;100021.84;5039947;28;20400;-70
2021/01/31 07:32:27;;;;;;;7.22;3.78;;;;;;;0.97;42.69;100040.81;5056571;28;20048;-70
2021/01/31 07:35:02;;;;;;;8.32;4.03;;;;;;;0.96;42.56;100059.75;5056345;28;20055;-69
2021/01/31 07:37:34;;;;;;;6.95;4.03;;;;;;;0.95;42.47;100063.38;5057777;28;20380;-69
2021/01/31 07:40:07;;;;;;;9.27;4.55;;;;;;;0.93;42.95;100058.09;5054574;28;20516;-70
2021/01/31 07:42:56;;;;;;;8.77;4.22;;;;;;;0.91;43.08;100042.97;5054423;28;20040;-70
2021/01/31 07:45:43;;;;;;;9.13;4.28;;;;;;;0.90;42.62;100054.72;5050702;28;20131;-70
2021/01/31 07:49:04;;;;;;;7.88;4.28;;;;;;;0.87;42.99;100054.91;5051590;28;20044;-70
2021/01/31 07:52:06;;;;;;;6.88;3.55;;;;;;;0.88;42.77;100043.19;4991161;28;20053;-69
2021/01/31 07:54:37;;;;;;;8.27;4.15;;;;;;;0.86;43.21;100045.09;5054053;28;20056;-71
2021/01/31 07:57:35;;;;;;;7.60;3.92;;;;;;;0.87;43.07;100041.44;5057585;28;20052;-70
2021/01/31 08:00:11;;;;;;;8.32;4.15;;;;;;;0.90;43.37;100036.72;4992404;28;20519;-70
2021/01/31 08:02:47;;;;;;;7.68;3.88;;;;;;;0.89;43.16;100035.00;5038901;28;20114;-69
2021/01/31 08:05:53;;;;;;;7.45;4.10;;;;;;;0.93;42.85;100035.69;5062692;28;20053;-70
2021/01/31 08:08:49;;;;;;;7.63;4.13;;;;;;;0.92;43.22;100031.25;5052112;28;20118;-70
2021/01/31 08:11:55;;;;;;;7.43;4.00;;;;;;;0.93;42.88;100031.16;5050715;28;20060;-70
2021/01/31 08:15:02;;;;;;;7.13;4.10;;;;;;;0.94;42.86;100034.72;5055348;28;20049;-70
2021/01/31 08:18:06;;;;;;;7.90;4.15;;;;;;;0.94;43.06;100035.59;5056668;28;20044;-70
2021/01/31 08:20:54;;;;;;;9.32;4.68;;;;;;;0.94;43.28;100040.97;5056331;28;20473;-70
2021/01/31 08:23:47;;;;;;;8.10;4.30;;;;;;;0.96;43.37;100038.19;5051822;28;20578;-70
2021/01/31 08:26:47;;;;;;;7.78;4.45;;;;;;;0.98;43.37;100039.81;5055414;28;20041;-70
2021/01/31 08:29:31;;;;;;;7.53;4.28;;;;;;;0.99;43.11;100044.25;5072249;28;20040;-70
2021/01/31 08:32:12;;;;;;;7.95;4.38;;;;;;;0.99;43.51;100035.31;5051520;28;20131;-70
2021/01/31 08:35:17;;;;;;;8.30;4.68;;;;;;;1.02;43.33;100038.69;5049997;28;20053;-69
2021/01/31 08:38:19;;;;;;;8.07;4.35;;;;;;;1.04;43.57;100041.31;5050168;28;20488;-69
2021/01/31 08:41:31;;;;;;;10.43;5.43;;;;;;;1.06;43.53;100043.91;5048003;28;20679;-69
2021/01/31 08:44:41;;;;;;;9.07;4.50;;;;;;;1.07;43.38;100041.09;5020918;28;20051;-70
2021/01/31 08:47:40;;;;;;;8.90;4.10;;;;;;;1.09;43.02;100039.19;5053122;28;20033;-70
2021/01/31 08:50:27;;;;;;;7.18;3.95;;;;;;;1.09;43.76;100038.31;5050884;28;20056;-70
2021/01/31 08:53:14;;;;;;;8.25;4.38;;;;;;;1.12;43.70;100038.16;5051580;28;20060;-70
2021/01/31 08:56:13;;;;;;;9.68;4.85;;;;;;;1.16;42.96;100028.91;5051265;28;20057;-70
2021/01/31 08:59:00;;;;;;;9.05;4.53;;;;;;;1.15;43.17;100035.28;5052009;28;20048;-69
2021/01/31 09:01:55;;;;;;;9.30;4.78;;;;;;;1.18;43.47;100041.38;5052106;28;20360;-70
2021/01/31 09:04:45;;;;;;;7.97;4.05;;;;;;;1.20;43.44;100039.44;5050933;28;20045;-69
2021/01/31 09:07:35;;;;;;;8.35;4.63;;;;;;;1.23;43.52;100046.50;5049244;28;20044;-69
2021/01/31 09:10:35;;;;;;;8.60;4.53;;;;;;;1.27;43.19;100042.63;5055674;28;20408;-69
2021/01/31 09:13:28;;;;;;;8.27;4.22;;;;;;;1.28;42.77;100038.97;5049300;28;20071;-69
2021/01/31 09:16:19;;;;;;;8.57;4.43;;;;;;;1.29;43.05;100051.50;5053670;28;20048;-70
2021/01/31 09:19:19;;;;;;;8.60;4.13;;;;;;;1.33;42.85;100045.81;5051976;28;20558;-70
2021/01/31 09:22:10;;;;;;;8.15;4.53;;;;;;;1.36;43.38;100047.47;5049885;28;20637;-70
2021/01/31 09:25:01;;;;;;;8.75;4.80;;;;;;;1.39;43.00;100047.28;5047752;28;20087;-70
2021/01/31 09:28:02;;;;;;;8.93;4.70;;;;;;;1.46;42.75;100042.38;5046933;28;20040;-69
2021/01/31 09:30:54;;;;;;;10.55;5.30;;;;;;;1.46;42.99;100045.94;5054161;28;20041;-70
2021/01/31 09:33:43;;;;;;;8.23;4.45;;;;;;;1.51;43.39;100043.81;5050909;28;20099;-70
2021/01/31 09:36:33;;;;;;;9.63;4.82;;;;;;;1.58;43.19;100049.69;5059640;28;20058;-70
2021/01/31 09:39:20;;;;;;;7.82;4.15;;;;;;;1.61;43.19;100057.59;5051907;28;20059;-70
2021/01/31 09:42:08;;;;;;;8.65;4.25;;;;;;;1.68;43.56;100062.50;5058658;28;20057;-71
2021/01/31 09:44:58;;;;;;;9.20;5.07;;;;;;;1.76;43.52;100059.34;5054155;28;20045;-70
2021/01/31 09:47:47;;;;;;;7.90;3.95;;;;;;;1.84;43.19;100054.31;5054374;28;20052;-70
2021/01/31 09:50:35;;;;;;;9.15;4.50;;;;;;;1.91;43.49;100055.66;5059693;28;20050;-70
2021/01/31 09:53:33;;;;;;;6.93;3.70;;;;;;;2.02;42.65;100063.97;5050279;28;20079;-70
2021/01/31 09:56:39;;;;;;;8.27;4.63;;;;;;;2.05;42.45;100058.34;5067193;28;20052;-71
2021/01/31 09:59:29;;;;;;;8.65;4.45;;;;;;;2.12;42.94;100048.91;5050722;28;20056;-71
2021/01/31 10:02:10;;;;;;;8.80;4.63;;;;;;;2.20;42.87;100043.03;5050723;28;20125;-71
2021/01/31 10:04:41;;;;;;;8.30;4.60;;;;;;;2.28;42.85;100046.09;5050193;28;20053;-71
2021/01/31 10:07:11;;;;;;;8.95;4.85;;;;;;;2.35;42.75;100041.16;5040866;28;20080;-70
2021/01/31 10:09:42;;;;;;;8.55;4.55;;;;;;;2.40;42.70;100042.59;5048864;28;20040;-70
2021/01/31 10:12:27;;;;;;;9.50;4.85;;;;;;;2.48;42.19;100042.94;5053062;28;20045;-71
2021/01/31 10:15:10;;;;;;;8.63;4.82;;;;;;;2.53;43.11;100034.56;5054710;28;20090;-71
2021/01/31 10:17:57;;;;;;;7.85;4.03;;;;;;;2.59;42.84;100039.53;5049326;28;20480;-70
2021/01/31 10:20:33;;;;;;;8.50;4.40;;;;;;;2.68;42.33;100035.38;5048489;28;20045;-71
2021/01/31 10:23:08;;;;;;;7.75;4.45;;;;;;;2.73;42.73;100030.50;5054111;28;20037;-71
2021/01/31 10:25:40;;;;;;;7.55;4.40;;;;;;;2.80;42.70;100023.72;5049541;28;20107;-70
2021/01/31 10:28:10;;;;;;;8.05;4.45;;;;;;;2.85;42.70;100027.00;5052743;28;20136;-71
2021/01/31 10:30:50;;;;;;;7.45;4.53;;;;;;;2.93;42.28;100022.81;5050040;28;20064;-71
2021/01/31 10:33:40;;;;;;;6.70;3.80;;;;;;;3.00;41.91;100006.19;5028881;28;20480;-71
2021/01/31 10:36:23;;;;;;;8.13;4.53;;;;;;;3.07;41.38;100011.06;5052062;28;20052;-68
2021/01/31 10:38:52;;;;;;;7.30;3.75;;;;;;;3.10;42.46;100002.75;5049938;28;20127;-69
2021/01/31 10:41:20;;;;;;;7.80;4.25;;;;;;;3.17;42.07;99998.66;5050829;28;20476;-70
2021/01/31 10:44:00;;;;;;;7.20;4.30;;;;;;;3.25;41.32;99988.16;5050579;28;20052;-70
2021/01/31 10:46:29;;;;;;;7.40;3.85;;;;;;;3.29;42.57;99989.66;5051010;28;20052;-70
2021/01/31 10:49:08;;;;;;;7.35;4.10;;;;;;;3.35;42.25;99988.38;5049697;28;20040;-70
2021/01/31 10:51:36;;;;;;;7.72;4.22;;;;;;;3.46;42.17;99987.59;5050718;28;20399;-70
2021/01/31 10:54:05;;;;;;;8.40;4.90;;;;;;;3.50;41.98;99984.59;5051935;28;20041;-70
2021/01/31 10:56:34;;;;;;;8.18;4.63;;;;;;;3.57;41.69;99971.50;5051687;28;20049;-70
2021/01/31 10:59:02;;;;;;;7.15;3.95;;;;;;;3.61;41.64;99981.19;5052757;28;20418;-70
2021/01/31 11:01:48;;;;;;;7.53;4.22;;;;;;;3.68;41.88;99982.47;5050171;28;20377;-70
2021/01/31 11:04:26;;;;;;;8.35;4.38;;;;;;;3.72;41.84;99975.84;5051439;28;20047;-70
2021/01/31 11:06:53;;;;;;;7.82;4.05;;;;;;;3.77;41.45;99972.81;5051318;28;20441;-69
2021/01/31 11:09:21;;;;;;;7.55;4.40;;;;;;;3.82;41.56;99966.09;5051405;28;20033;-70
2021/01/31 11:11:52;;;;;;;7.53;4.15;;;;;;;3.85;40.85;99963.19;5033793;28;20543;-70
2021/01/31 11:14:41;;;;;;;7.45;4.47;;;;;;;3.87;40.70;99960.34;5051003;28;20053;-70
2021/01/31 11:17:09;;;;;;;8.52;4.90;;;;;;;3.89;40.80;99963.81;5051407;28;20095;-70
2021/01/31 11:19:38;;;;;;;9.23;4.38;;;;;;;3.92;40.98;99958.19;5051109;28;20110;-70
2021/01/31 11:22:06;;;;;;;7.53;4.43;;;;;;;3.94;40.96;99954.38;5051095;28;20087;-70
2021/01/31 11:24:53;;;;;;;7.72;4.78;;;;;;;3.95;41.12;99956.09;5052688;28;20439;-70
2021/01/31 11:27:21;;;;;;;7.63;4.93;;;;;;;4.02;40.97;99952.00;5053402;28;20041;-70
2021/01/31 11:29:49;;;;;;;8.93;5.18;;;;;;;4.04;41.00;99944.59;5054148;28;20041;-70
2021/01/31 11:32:17;;;;;;;9.13;5.25;;;;;;;4.09;40.82;99944.28;5050698;28;20048;-70
2021/01/31 11:34:45;;;;;;;8.38;4.50;;;;;;;4.13;40.81;99947.59;5048788;28;20154;-70
2021/01/31 11:37:27;;;;;;;7.25;4.03;;;;;;;4.18;40.98;99943.59;5034209;28;20038;-69
2021/01/31 11:39:55;;;;;;;6.90;4.32;;;;;;;4.24;41.04;99935.00;5050376;28;20045;-69
2021/01/31 11:42:35;;;;;;;7.60;4.40;;;;;;;4.30;40.82;99937.25;5051126;28;20056;-69
2021/01/31 11:45:05;;;;;;;8.80;4.43;;;;;;;4.38;40.75;99939.38;5050823;28;20056;-69
2021/01/31 11:47:36;;;;;;;;;;;;;;;4.18;40.26;99940.03;5027173;28;20046;-69
2021/01/31 11:50:05;;;;;;;7.25;4.22;;;;;;;4.45;41.07;99933.38;5052133;28;20524;-71
2021/01/31 11:52:34;;;;;;;7.10;3.67;;;;;;;4.54;40.98;99912.88;5051857;28;20064;-69
2021/01/31 11:55:13;;;;;;;7.65;4.18;;;;;;;4.62;40.88;99910.44;5049120;28;20064;-69
2021/01/31 11:57:43;;;;;;;7.72;4.43;;;;;;;4.70;40.40;99901.72;5049991;28;20048;-69
2021/01/31 12:00:18;;;;;;;6.85;4.00;;;;;;;4.76;39.92;99899.41;5048722;28;20108;-70
2021/01/31 12:03:05;;;;;;;7.75;4.00;;;;;;;4.80;40.19;99891.91;5049113;28;20053;-70
2021/01/31 12:05:35;;;;;;;6.90;4.32;;;;;;;4.85;40.36;99889.72;5051290;28;20036;-69
2021/01/31 12:08:04;;;;;;;6.95;3.90;;;;;;;4.87;40.10;99893.13;5058223;28;20060;-70
2021/01/31 12:10:33;;;;;;;7.13;4.07;;;;;;;4.90;39.93;99892.91;5057614;28;20495;-70
2021/01/31 12:13:22;;;;;;;7.70;3.78;;;;;;;4.95;39.83;99895.25;5042131;28;20100;-70
2021/01/31 12:15:49;;;;;;;6.78;3.88;;;;;;;4.99;40.19;99888.63;5053417;28;20041;-70
2021/01/31 12:18:39;;;;;;;6.95;3.65;;;;;;;5.01;40.04;99878.53;5057927;28;20067;-69
2021/01/31 12:21:07;;;;;;;6.70;3.90;;;;;;;5.07;40.05;99876.19;5053170;28;20105;-69
2021/01/31 12:23:54;;;;;;;6.28;3.65;;;;;;;5.11;39.76;99876.78;5058767;28;20075;-69
2021/01/31 12:26:24;;;;;;;6.68;4.00;;;;;;;5.16;39.68;99877.31;5048541;28;20041;-69
2021/01/31 12:28:55;;;;;;;6.93;4.10;;;;;;;5.20;39.44;99867.94;5059205;28;20144;-69
2021/01/31 12:31:22;;;;;;;6.65;3.83;;;;;;;5.22;39.77;99855.13;5052259;28;20056;-69
2021/01/31 12:33:49;;;;;;;7.13;3.95;;;;;;;5.26;39.61;99859.34;5059409;28;20376;-69
2021/01/31 12:36:39;;;;;;;6.75;3.65;;;;;;;5.29;39.58;99856.34;5051218;28;20053;-69
2021/01/31 12:39:07;;;;;;;7.22;4.10;;;;;;;5.32;39.62;99852.53;5059987;28;20078;-69